Time;durP1;ratioP1;P1;durP2;ratioP2;P2;SDS_P1;SDS_P2;PMS_P1;PMS_P2;Temp;Humidity;BMP_temperature;BMP_pressure;BME280_temperature;BME280_humidity;BME280_pressure;Samples;Min_cycle;Max_cycle;Signal;HPM_P1;HPM_P2
2022/05/09 00:00:02;;;;;;;3.83;3.00;;;15.70;99.90;;;;;;6093811;23;20002;-81
2022/05/09 00:02:28;;;;;;;4.05;3.25;;;15.60;99.90;;;;;;6093325;23;20003;-80
2022/05/09 00:04:54;;;;;;;3.70;3.30;;;15.60;99.90;;;;;;6068069;23;20469;-81
2022/05/09 00:07:19;;;;;;;6.63;3.38;;;15.60;99.90;;;;;;6093849;23;20004;-81
2022/05/09 00:09:45;;;;;;;4.55;3.15;;;15.60;99.90;;;;;;6093453;23;20285;-81
2022/05/09 00:12:11;;;;;;;4.70;3.00;;;15.60;99.90;;;;;;6067808;23;20007;-81
2022/05/09 00:14:37;;;;;;;4.70;3.22;;;15.60;99.90;;;;;;6067779;23;20059;-80
2022/05/09 00:17:04;;;;;;;7.05;3.45;;;15.60;99.90;;;;;;6067936;23;20057;-81
2022/05/09 00:19:29;;;;;;;4.38;3.30;;;15.60;99.90;;;;;;6067860;23;20426;-81
2022/05/09 00:21:55;;;;;;;5.43;3.25;;;15.60;99.90;;;;;;6067806;23;20002;-81
2022/05/09 00:24:22;;;;;;;4.35;3.60;;;15.60;99.90;;;;;;6093323;23;20364;-81
2022/05/09 00:26:49;;;;;;;3.35;3.05;;;15.60;99.90;;;;;;6093431;23;20006;-81
2022/05/09 00:29:16;;;;;;;4.70;3.00;;;15.50;99.90;;;;;;6067815;23;20082;-81
2022/05/09 00:31:45;;;;;;;3.03;2.58;;;15.50;99.90;;;;;;6093739;23;20033;-81
2022/05/09 00:34:11;;;;;;;4.30;3.25;;;15.50;99.90;;;;;;6067828;23;20081;-81
2022/05/09 00:36:39;;;;;;;4.50;3.05;;;15.50;99.90;;;;;;6067820;23;20010;-81
2022/05/09 00:39:05;;;;;;;4.43;3.33;;;15.50;99.90;;;;;;6093344;23;20473;-81
2022/05/09 00:41:41;;;;;;;4.75;3.13;;;15.50;99.90;;;;;;6067738;23;20010;-81
2022/05/09 00:44:07;;;;;;;7.07;3.38;;;15.50;99.90;;;;;;6067759;23;20502;-80
2022/05/09 00:46:33;;;;;;;6.05;3.15;;;15.50;99.90;;;;;;6067706;23;20033;-80
2022/05/09 00:49:14;;;;;;;5.35;3.10;;;15.50;99.90;;;;;;6093301;23;20002;-80
2022/05/09 00:51:43;;;;;;;4.38;3.22;;;15.50;99.90;;;;;;6067853;23;20089;-81
2022/05/09 00:54:09;;;;;;;4.22;3.05;;;15.50;99.90;;;;;;6093216;23;20082;-81
2022/05/09 00:56:49;;;;;;;3.80;3.08;;;15.40;99.90;;;;;;6093078;23;20101;-80
2022/05/09 00:59:17;;;;;;;4.78;3.13;;;15.40;99.90;;;;;;6093328;23;20312;-80
2022/05/09 01:01:45;;;;;;;5.10;3.47;;;15.40;99.90;;;;;;6067679;23;20068;-81
2022/05/09 01:04:25;;;;;;;5.18;3.22;;;15.40;99.90;;;;;;6093471;23;20002;-81
2022/05/09 01:06:55;;;;;;;5.18;3.30;;;15.40;99.90;;;;;;6067818;23;20417;-80
2022/05/09 01:09:21;;;;;;;4.07;2.97;;;15.40;99.90;;;;;;6067579;23;20006;-81
2022/05/09 01:11:48;;;;;;;5.10;3.10;;;15.40;99.90;;;;;;6067586;23;20012;-81
2022/05/09 01:14:16;;;;;;;4.82;3.25;;;15.40;99.90;;;;;;6067627;23;20013;-80
2022/05/09 01:16:43;;;;;;;4.22;3.33;;;15.40;99.90;;;;;;6067557;23;20037;-80
2022/05/09 01:19:30;;;;;;;7.72;3.55;;;15.40;99.90;;;;;;6067603;23;20500;-81
2022/05/09 01:21:57;;;;;;;4.13;3.03;;;15.30;99.90;;;;;;6093150;23;20002;-80
2022/05/09 01:24:25;;;;;;;5.60;2.80;;;15.30;99.90;;;;;;6067119;23;20002;-81
2022/05/09 01:26:53;;;;;;;5.40;2.88;;;15.30;99.90;;;;;;6067561;23;20081;-80
2022/05/09 01:29:26;;;;;;;3.75;3.33;;;15.30;99.90;;;;;;6067624;23;20002;-81
2022/05/09 01:31:53;;;;;;;5.03;3.53;;;15.30;99.90;;;;;;6067650;23;20082;-81
2022/05/09 01:34:19;;;;;;;5.30;3.55;;;15.30;99.90;;;;;;6093128;23;19999;-80
2022/05/09 01:36:56;;;;;;;4.50;3.30;;;15.30;99.90;;;;;;6093465;23;20026;-80
2022/05/09 01:39:24;;;;;;;4.80;3.17;;;15.30;99.90;;;;;;6067502;23;20003;-80
2022/05/09 01:41:50;;;;;;;7.40;3.60;;;15.30;99.90;;;;;;6067400;23;20028;-80
2022/05/09 01:44:16;;;;;;;5.63;3.35;;;15.30;99.90;;;;;;6093438;23;20017;-80
2022/05/09 01:49:30;;;;;;;5.53;3.50;;;15.20;99.90;;;;;;6093791;23;20097;-81
2022/05/09 01:52:03;;;;;;;3.58;2.90;;;15.20;99.90;;;;;;6093020;23;20030;-80
2022/05/09 01:54:29;;;;;;;6.82;3.60;;;15.20;99.90;;;;;;6092950;23;20002;-80
2022/05/09 01:56:55;;;;;;;4.25;3.25;;;15.20;99.90;;;;;;6092785;23;20160;-81
2022/05/09 01:59:20;;;;;;;4.50;2.90;;;15.20;99.90;;;;;;6067421;23;20002;-81
2022/05/09 02:01:55;;;;;;;4.47;2.95;;;15.20;99.90;;;;;;6067443;23;20327;-80
2022/05/09 02:04:22;;;;;;;6.18;3.25;;;15.20;99.90;;;;;;6067457;23;20028;-80
2022/05/09 02:06:48;;;;;;;7.72;3.17;;;15.20;99.90;;;;;;6067354;23;20017;-80
2022/05/09 02:09:13;;;;;;;4.50;3.00;;;15.20;99.90;;;;;;6092888;23;20026;-80
2022/05/09 02:11:39;;;;;;;4.57;3.50;;;15.20;99.90;;;;;;6092868;23;20002;-81
2022/05/09 02:14:06;;;;;;;3.80;3.40;;;15.10;99.90;;;;;;6093171;23;20007;-80
2022/05/09 02:16:32;;;;;;;5.00;3.45;;;15.10;99.90;;;;;;6093452;23;20404;-80
2022/05/09 02:18:58;;;;;;;5.93;3.30;;;15.10;99.90;;;;;;6067285;23;20009;-80
2022/05/09 02:21:23;;;;;;;4.72;3.03;;;15.10;99.90;;;;;;6092800;23;20073;-80
2022/05/09 02:23:49;;;;;;;3.05;2.50;;;15.10;99.90;;;;;;6093034;23;20364;-80
2022/05/09 02:26:16;;;;;;;5.03;3.20;;;15.10;99.90;;;;;;6067321;23;20030;-80
2022/05/09 02:28:41;;;;;;;5.20;2.90;;;15.10;99.90;;;;;;6067150;23;20434;-80
2022/05/09 02:31:07;;;;;;;3.95;3.03;;;15.10;99.90;;;;;;6067427;23;20049;-80
2022/05/09 02:33:33;;;;;;;5.63;3.13;;;15.10;99.90;;;;;;6092747;23;20103;-80
2022/05/09 02:35:59;;;;;;;4.38;3.30;;;15.10;99.90;;;;;;6067559;23;20002;-81
2022/05/09 02:38:24;;;;;;;7.15;3.15;;;15.10;99.90;;;;;;6093711;23;20303;-81
2022/05/09 02:40:53;;;;;;;8.13;3.33;;;15.00;99.90;;;;;;6093799;23;20010;-81
2022/05/09 02:43:19;;;;;;;5.95;3.20;;;15.10;99.90;;;;;;6093679;23;20006;-81
2022/05/09 02:45:44;;;;;;;4.70;3.40;;;15.00;99.90;;;;;;6068355;23;20017;-81
2022/05/09 02:48:11;;;;;;;5.25;3.10;;;15.00;99.90;;;;;;6093950;23;19995;-81
2022/05/09 02:50:37;;;;;;;3.97;3.20;;;15.00;99.90;;;;;;6093647;23;19998;-81
2022/05/09 02:53:03;;;;;;;7.07;3.75;;;15.00;99.90;;;;;;6068270;23;20010;-81
2022/05/09 02:55:31;;;;;;;5.95;3.25;;;14.90;99.90;;;;;;6067951;23;20022;-81
2022/05/09 02:57:57;;;;;;;5.38;3.20;;;15.00;99.90;;;;;;6093658;23;20053;-81
2022/05/09 03:00:26;;;;;;;3.80;2.97;;;15.00;99.90;;;;;;6093633;23;20002;-81
2022/05/09 03:05:38;;;;;;;4.78;3.30;;;15.00;99.90;;;;;;6093853;23;20343;-81
2022/05/09 03:08:05;;;;;;;4.25;3.30;;;14.90;99.90;;;;;;6094122;23;19995;-81
2022/05/09 03:10:31;;;;;;;3.80;3.30;;;14.90;99.90;;;;;;6068374;23;20484;-81
2022/05/09 03:12:59;;;;;;;4.43;3.22;;;15.00;99.90;;;;;;6093800;23;20331;-81
2022/05/09 03:15:26;;;;;;;3.67;3.28;;;14.90;99.90;;;;;;6068351;23;20383;-81
2022/05/09 03:17:52;;;;;;;3.85;2.95;;;14.90;99.90;;;;;;6094093;23;20003;-81
2022/05/09 03:20:18;;;;;;;4.82;3.35;;;14.90;99.90;;;;;;6093748;23;20013;-81
2022/05/09 03:22:44;;;;;;;4.90;3.35;;;14.90;99.90;;;;;;6093654;23;20129;-80
2022/05/09 03:25:10;;;;;;;4.70;3.10;;;14.90;99.90;;;;;;6093810;23;20041;-81
2022/05/09 03:27:38;;;;;;;4.50;3.20;;;14.90;99.90;;;;;;6093804;23;20052;-81
2022/05/09 03:30:06;;;;;;;8.07;3.05;;;14.90;99.90;;;;;;6068396;23;20006;-81
2022/05/09 03:32:31;;;;;;;5.05;3.42;;;14.90;99.90;;;;;;6068267;23;20006;-81
2022/05/09 03:34:57;;;;;;;6.45;3.42;;;14.80;99.90;;;;;;6068336;23;20010;-81
2022/05/09 03:37:23;;;;;;;5.85;3.42;;;14.80;99.90;;;;;;6068309;23;20011;-81
2022/05/09 03:39:48;;;;;;;4.03;3.00;;;14.80;99.90;;;;;;6094154;23;20006;-81
2022/05/09 03:42:14;;;;;;;5.38;3.50;;;14.80;99.90;;;;;;6068224;23;20457;-81
2022/05/09 03:44:40;;;;;;;4.47;3.08;;;14.80;99.90;;;;;;6093734;23;20010;-81
2022/05/09 03:47:05;;;;;;;5.75;3.35;;;14.80;99.90;;;;;;6093547;23;20002;-81
2022/05/09 03:49:31;;;;;;;5.80;3.30;;;14.80;99.90;;;;;;6068284;23;20013;-80
2022/05/09 03:51:56;;;;;;;5.63;3.10;;;14.80;99.90;;;;;;6093763;23;19999;-81
2022/05/09 03:54:22;;;;;;;5.63;3.03;;;14.80;99.90;;;;;;6068195;23;20007;-81
2022/05/09 03:56:48;;;;;;;4.75;3.00;;;14.70;99.90;;;;;;6093586;23;20019;-81
2022/05/09 03:59:13;;;;;;;3.88;3.10;;;14.70;99.90;;;;;;6068236;23;20072;-81
2022/05/09 04:01:39;;;;;;;5.00;2.97;;;14.70;99.90;;;;;;6068183;23;20010;-81
2022/05/09 04:04:05;;;;;;;4.70;3.50;;;14.70;99.90;;;;;;6093381;23;20014;-81
2022/05/09 04:06:31;;;;;;;5.38;3.47;;;14.70;99.90;;;;;;6093422;23;20003;-81
2022/05/09 04:08:57;;;;;;;4.68;3.35;;;14.70;99.90;;;;;;6093267;23;19999;-81
2022/05/09 04:11:22;;;;;;;4.78;3.58;;;14.70;99.90;;;;;;6093709;23;20002;-81
2022/05/09 04:13:48;;;;;;;7.30;3.20;;;14.70;99.90;;;;;;6093474;23;20093;-81
2022/05/09 04:18:59;;;;;;;6.18;3.38;;;14.70;99.90;;;;;;6093786;23;20064;-81
2022/05/09 04:21:26;;;;;;;3.85;3.35;;;14.70;99.90;;;;;;6068057;23;20117;-81
2022/05/09 04:23:56;;;;;;;5.05;3.65;;;14.70;99.90;;;;;;6067700;23;20007;-81
2022/05/09 04:26:23;;;;;;;5.47;3.42;;;14.70;99.90;;;;;;6067787;23;20011;-81
2022/05/09 04:28:49;;;;;;;4.03;3.05;;;14.60;99.90;;;;;;6093437;23;20003;-81
2022/05/09 04:31:15;;;;;;;6.05;3.60;;;14.70;99.90;;;;;;6093531;23;20026;-81
2022/05/09 04:33:42;;;;;;;5.20;3.63;;;14.60;99.90;;;;;;6093464;23;20423;-81
2022/05/09 04:36:08;;;;;;;3.40;3.00;;;14.60;99.90;;;;;;6093455;23;20105;-81
2022/05/09 04:38:35;;;;;;;5.93;3.85;;;14.60;99.90;;;;;;6093635;23;20438;-81
2022/05/09 04:41:02;;;;;;;8.27;3.70;;;14.60;99.90;;;;;;6093344;23;20391;-81
2022/05/09 04:43:31;;;;;;;6.50;3.40;;;14.60;99.90;;;;;;6093192;23;20335;-81
2022/05/09 04:46:01;;;;;;;5.32;3.30;;;14.60;99.90;;;;;;6067732;23;20013;-81
2022/05/09 04:48:27;;;;;;;5.72;3.90;;;14.60;99.90;;;;;;6067719;23;20449;-81
2022/05/09 04:50:53;;;;;;;4.13;3.40;;;14.60;99.90;;;;;;6093903;23;20002;-82
2022/05/09 04:53:19;;;;;;;6.53;3.10;;;14.60;99.90;;;;;;6093831;23;20322;-82
2022/05/09 04:55:46;;;;;;;7.28;3.60;;;14.60;99.90;;;;;;6093126;23;20018;-82
2022/05/09 04:58:20;;;;;;;5.90;3.67;;;14.60;99.90;;;;;;6093527;23;20011;-82
2022/05/09 05:00:46;;;;;;;4.75;3.60;;;14.60;99.90;;;;;;6093107;23;20389;-82
2022/05/09 05:03:12;;;;;;;5.97;3.25;;;14.60;99.90;;;;;;6067832;23;20446;-82
2022/05/09 05:05:38;;;;;;;7.60;4.03;;;14.60;99.90;;;;;;6093839;23;20010;-82
2022/05/09 05:08:04;;;;;;;5.40;3.70;;;14.60;99.90;;;;;;6067924;23;20033;-82
2022/05/09 05:10:30;;;;;;;3.92;3.53;;;14.60;99.90;;;;;;6093773;23;20116;-81
2022/05/09 05:12:58;;;;;;;5.47;3.97;;;14.60;99.90;;;;;;6067823;23;20434;-82
2022/05/09 05:15:27;;;;;;;7.88;4.07;;;14.60;99.90;;;;;;6093440;23;20010;-81
2022/05/09 05:17:53;;;;;;;5.68;3.65;;;14.60;99.90;;;;;;6067842;23;20431;-82
2022/05/09 05:20:19;;;;;;;6.30;3.92;;;14.60;99.90;;;;;;6067871;23;20002;-82
2022/05/09 05:22:47;;;;;;;6.15;3.92;;;14.60;99.90;;;;;;6067790;23;20370;-81
2022/05/09 05:25:14;;;;;;;5.80;3.78;;;14.60;99.90;;;;;;6067873;23;20006;-81
2022/05/09 05:27:40;;;;;;;5.68;4.05;;;14.60;99.90;;;;;;6093412;23;20359;-82
2022/05/09 05:30:08;;;;;;;5.35;4.30;;;14.60;99.90;;;;;;6067875;23;20009;-81
2022/05/09 05:32:37;;;;;;;7.10;4.40;;;14.60;99.90;;;;;;6093356;23;20006;-82
2022/05/09 05:35:08;;;;;;;4.97;4.43;;;14.60;99.90;;;;;;6067717;23;20017;-82
2022/05/09 05:37:34;;;;;;;5.65;4.22;;;14.60;99.90;;;;;;6093349;23;20008;-82
2022/05/09 05:40:00;;;;;;;4.90;4.18;;;14.60;99.90;;;;;;6093340;23;20077;-81
2022/05/09 05:42:27;;;;;;;5.80;4.10;;;14.60;99.90;;;;;;6093228;23;20334;-82
2022/05/09 05:44:53;;;;;;;9.50;4.63;;;14.60;99.90;;;;;;6067708;23;20454;-81
2022/05/09 05:47:21;;;;;;;6.53;4.40;;;14.60;99.90;;;;;;6093230;23;19999;-81
2022/05/09 05:49:47;;;;;;;6.10;4.38;;;14.60;99.90;;;;;;6067605;23;20003;-81
2022/05/09 05:52:13;;;;;;;7.68;4.55;;;14.60;99.90;;;;;;6067662;23;19999;-81
2022/05/09 05:54:44;;;;;;;6.97;4.47;;;14.60;99.90;;;;;;6093489;23;20006;-82
2022/05/09 05:57:17;;;;;;;7.40;4.63;;;14.60;99.90;;;;;;6093387;23;20015;-81
2022/05/09 05:59:51;;;;;;;7.13;4.28;;;14.60;99.90;;;;;;6067689;23;20009;-81
2022/05/09 06:02:17;;;;;;;7.50;4.47;;;14.60;99.90;;;;;;6093043;23;20003;-81
2022/05/09 06:04:43;;;;;;;7.90;4.60;;;14.60;99.90;;;;;;6093097;23;20002;-81
2022/05/09 06:07:10;;;;;;;7.43;4.38;;;14.60;99.90;;;;;;6067382;23;20030;-81
2022/05/09 06:09:36;;;;;;;7.38;3.67;;;14.70;99.90;;;;;;6092950;23;19998;-81
2022/05/09 06:12:02;;;;;;;6.40;3.63;;;14.70;99.90;;;;;;6092706;23;20009;-82
2022/05/09 06:14:28;;;;;;;5.20;3.80;;;14.70;99.90;;;;;;6092938;23;20029;-82
2022/05/09 06:16:54;;;;;;;4.63;3.70;;;14.70;99.90;;;;;;6092922;23;20006;-82
2022/05/09 06:19:21;;;;;;;8.55;3.90;;;14.70;99.90;;;;;;6067342;23;20493;-82
2022/05/09 06:21:47;;;;;;;5.97;3.85;;;14.70;99.90;;;;;;6092908;23;20009;-81
2022/05/09 06:24:13;;;;;;;6.07;3.88;;;14.70;99.90;;;;;;6067278;23;20426;-81
2022/05/09 06:26:40;;;;;;;4.75;4.13;;;14.70;99.90;;;;;;6093159;23;19999;-81
2022/05/09 06:29:06;;;;;;;6.13;4.45;;;14.80;99.90;;;;;;6067229;23;20084;-81
2022/05/09 06:31:37;;;;;;;6.22;4.07;;;14.80;99.90;;;;;;6092827;23;19999;-81
2022/05/09 06:34:03;;;;;;;6.28;4.35;;;14.80;99.90;;;;;;6067139;23;20010;-81
2022/05/09 06:36:36;;;;;;;7.65;4.43;;;14.80;99.90;;;;;;6093035;23;20018;-81
2022/05/09 06:39:02;;;;;;;5.22;4.30;;;14.80;99.90;;;;;;6092767;23;20034;-81
2022/05/09 06:41:28;;;;;;;7.10;4.65;;;14.80;99.90;;;;;;6092991;23;20053;-81
2022/05/09 06:43:54;;;;;;;6.00;4.60;;;14.90;99.90;;;;;;6092905;23;20488;-82
2022/05/09 06:46:19;;;;;;;6.40;3.92;;;14.80;99.90;;;;;;6068185;23;20003;-82
2022/05/09 06:48:45;;;;;;;5.00;4.50;;;14.80;99.90;;;;;;6092710;23;20385;-82
2022/05/09 06:51:11;;;;;;;6.70;4.65;;;14.90;99.90;;;;;;6092643;23;20327;-82
2022/05/09 06:53:37;;;;;;;4.63;3.70;;;14.90;99.90;;;;;;6067067;23;20379;-81
2022/05/09 06:56:04;;;;;;;4.93;4.32;;;14.90;99.90;;;;;;6066830;23;20022;-82
2022/05/09 06:58:29;;;;;;;6.28;3.97;;;14.90;99.90;;;;;;6092521;23;20006;-82
2022/05/09 07:00:56;;;;;;;5.78;4.40;;;14.90;99.90;;;;;;6092967;23;20002;-82
2022/05/09 07:03:22;;;;;;;5.72;4.50;;;15.00;99.90;;;;;;6066806;23;20017;-81
2022/05/09 07:05:51;;;;;;;7.65;4.97;;;14.90;99.90;;;;;;6092498;23;20006;-82
2022/05/09 07:08:18;;;;;;;5.95;4.80;;;14.90;99.90;;;;;;6092521;23;20026;-82
2022/05/09 07:10:44;;;;;;;5.72;4.68;;;15.00;99.90;;;;;;6092815;23;20005;-82
2022/05/09 07:13:10;;;;;;;6.22;4.50;;;15.00;99.90;;;;;;6066935;23;20011;-81
2022/05/09 07:15:36;;;;;;;8.00;4.43;;;15.00;99.90;;;;;;6092465;23;20074;-82
2022/05/09 07:18:03;;;;;;;5.43;4.00;;;15.00;99.90;;;;;;6066784;23;20056;-82
2022/05/09 07:20:32;;;;;;;5.15;4.20;;;15.00;99.90;;;;;;6066875;23;20017;-82
2022/05/09 07:23:08;;;;;;;7.15;4.03;;;15.10;99.90;;;;;;6093000;23;20438;-81
2022/05/09 07:25:34;;;;;;;7.82;4.53;;;15.10;99.90;;;;;;6093857;23;20003;-82
2022/05/09 07:28:00;;;;;;;5.80;4.25;;;15.10;99.90;;;;;;6093941;23;20065;-82
2022/05/09 07:30:26;;;;;;;5.68;4.20;;;15.10;99.90;;;;;;6068151;23;20388;-82
2022/05/09 07:32:52;;;;;;;5.93;4.40;;;15.20;99.90;;;;;;6068069;23;20004;-82
2022/05/09 07:35:19;;;;;;;6.00;4.22;;;15.20;99.90;;;;;;6093600;23;20007;-82
2022/05/09 07:37:46;;;;;;;7.90;4.10;;;15.20;99.90;;;;;;6093595;23;20014;-82
2022/05/09 07:40:13;;;;;;;4.65;4.18;;;15.20;99.90;;;;;;6093544;23;20013;-82
2022/05/09 07:42:42;;;;;;;5.25;4.10;;;15.20;99.90;;;;;;6068126;23;20002;-82
2022/05/09 07:45:10;;;;;;;6.07;4.47;;;15.30;99.90;;;;;;6068008;23;20057;-82
2022/05/09 07:47:41;;;;;;;6.30;4.40;;;15.30;99.90;;;;;;6068160;23;20457;-82
2022/05/09 07:50:08;;;;;;;7.60;4.07;;;15.30;99.90;;;;;;6067994;23;20013;-82
2022/05/09 07:52:34;;;;;;;4.70;3.80;;;15.30;99.90;;;;;;6068008;23;20006;-82
2022/05/09 07:55:00;;;;;;;5.85;4.32;;;15.40;99.90;;;;;;6067712;23;20010;-81
2022/05/09 07:57:27;;;;;;;6.32;3.90;;;15.40;99.90;;;;;;6094325;23;20013;-82
2022/05/09 07:59:52;;;;;;;5.90;4.05;;;15.40;99.90;;;;;;6068961;23;20015;-82
2022/05/09 08:02:18;;;;;;;5.50;4.22;;;15.40;99.90;;;;;;6067981;23;20089;-82
2022/05/09 08:04:44;;;;;;;5.55;4.28;;;15.50;99.90;;;;;;6068044;23;20084;-82
2022/05/09 08:07:09;;;;;;;5.25;3.83;;;15.50;99.90;;;;;;6093543;23;20362;-82
2022/05/09 08:09:35;;;;;;;4.60;4.20;;;15.50;99.90;;;;;;6068008;23;20085;-82
2022/05/09 08:12:03;;;;;;;7.32;4.40;;;15.50;99.90;;;;;;6093497;23;20006;-82
2022/05/09 08:14:29;;;;;;;4.43;3.97;;;15.60;99.90;;;;;;6093475;23;20009;-82
2022/05/09 08:16:55;;;;;;;5.53;4.13;;;15.60;99.90;;;;;;6093494;23;19998;-82
2022/05/09 08:19:21;;;;;;;5.18;4.53;;;15.60;99.90;;;;;;6067948;23;20033;-82
2022/05/09 08:21:49;;;;;;;5.35;4.10;;;15.60;99.90;;;;;;6093537;23;19998;-82
2022/05/09 08:24:15;;;;;;;5.47;4.05;;;15.70;99.90;;;;;;6067811;23;20136;-82
2022/05/09 08:26:41;;;;;;;6.75;4.45;;;15.70;99.90;;;;;;6093734;23;20010;-82
2022/05/09 08:29:07;;;;;;;8.15;4.55;;;15.70;99.90;;;;;;6093480;23;20415;-82
2022/05/09 08:31:33;;;;;;;4.88;3.58;;;15.80;99.90;;;;;;6067942;23;20094;-82
2022/05/09 08:33:59;;;;;;;5.53;4.30;;;15.80;99.90;;;;;;6093338;23;20057;-82
2022/05/09 08:39:10;;;;;;;7.82;4.25;;;15.90;99.90;;;;;;6093788;23;20062;-82
2022/05/09 08:41:50;;;;;;;6.53;4.32;;;15.90;99.90;;;;;;6067850;23;20007;-82
2022/05/09 08:44:24;;;;;;;4.70;3.92;;;15.90;99.90;;;;;;6067896;23;20010;-83
2022/05/09 08:47:41;;;;;;;7.03;4.10;;;16.00;99.90;;;;;;6093466;23;20057;-82
2022/05/09 08:50:29;;;;;;;6.28;3.90;;;16.00;99.90;;;;;;6093353;23;19998;-82
2022/05/09 08:52:57;;;;;;;4.80;3.70;;;16.10;99.90;;;;;;6093323;23;20006;-82
2022/05/09 08:55:27;;;;;;;7.32;4.43;;;16.10;99.90;;;;;;6093251;23;20060;-81
2022/05/09 08:58:19;;;;;;;4.75;3.95;;;16.10;99.90;;;;;;6067748;23;20060;-82
2022/05/09 09:00:47;;;;;;;7.32;4.15;;;16.10;99.90;;;;;;6093674;23;20089;-82
2022/05/09 09:03:38;;;;;;;5.88;4.10;;;16.10;99.90;;;;;;6093242;23;20006;-82
2022/05/09 09:06:18;;;;;;;8.55;4.00;;;16.10;99.90;;;;;;6067822;23;20007;-82
2022/05/09 09:09:25;;;;;;;4.65;3.60;;;16.20;99.90;;;;;;6067798;23;20309;-81
2022/05/09 09:12:15;;;;;;;4.78;3.92;;;16.20;99.90;;;;;;6110297;23;20049;-81
2022/05/09 09:14:51;;;;;;;8.27;3.50;;;16.20;99.90;;;;;;6093616;23;20017;-81
2022/05/09 09:17:40;;;;;;;5.35;3.92;;;16.30;99.90;;;;;;6093357;23;20002;-81
2022/05/09 09:20:15;;;;;;;3.92;3.53;;;16.30;99.90;;;;;;6067773;23;20013;-81
2022/05/09 09:22:50;;;;;;;5.57;4.15;;;16.30;99.90;;;;;;6093625;23;20388;-81
2022/05/09 09:25:38;;;;;;;6.35;3.58;;;16.30;99.90;;;;;;6093906;23;20006;-81
2022/05/09 09:28:16;;;;;;;6.30;3.80;;;16.40;99.90;;;;;;6093599;23;20010;-81
2022/05/09 09:30:43;;;;;;;4.72;3.20;;;16.40;99.90;;;;;;6067635;23;20002;-81
2022/05/09 09:33:12;;;;;;;4.65;3.65;;;16.50;99.90;;;;;;6093448;23;20010;-81
2022/05/09 09:35:58;;;;;;;5.35;3.70;;;16.50;99.90;;;;;;6093104;23;20007;-80
2022/05/09 09:38:46;;;;;;;6.07;3.35;;;16.50;99.90;;;;;;6093212;23;20010;-81
2022/05/09 09:41:23;;;;;;;5.90;3.92;;;16.50;99.90;;;;;;6093129;23;19998;-81
2022/05/09 09:43:52;;;;;;;4.53;3.60;;;16.60;99.90;;;;;;6093133;23;20013;-82
2022/05/09 09:46:18;;;;;;;8.00;3.55;;;16.60;99.90;;;;;;6092726;23;20079;-81
2022/05/09 09:48:44;;;;;;;4.57;3.80;;;16.60;99.90;;;;;;6093440;23;20034;-81
2022/05/09 09:51:17;;;;;;;7.38;4.28;;;16.60;99.90;;;;;;6067613;23;20342;-81
2022/05/09 09:53:52;;;;;;;6.63;3.80;;;16.60;99.90;;;;;;6067581;23;20094;-81
2022/05/09 09:56:20;;;;;;;7.72;3.60;;;16.60;99.90;;;;;;6067154;23;20088;-81
2022/05/09 09:58:47;;;;;;;7.95;3.60;;;16.60;99.90;;;;;;6067569;23;20006;-82
2022/05/09 10:01:20;;;;;;;5.32;3.75;;;16.60;99.90;;;;;;6067497;23;20094;-82
2022/05/09 10:04:02;;;;;;;6.88;3.70;;;16.60;99.90;;;;;;6067569;23;20011;-82
2022/05/09 10:06:28;;;;;;;4.50;3.45;;;16.60;99.90;;;;;;6093034;23;20007;-82
2022/05/09 10:09:03;;;;;;;4.30;3.90;;;16.60;99.90;;;;;;6092923;23;20377;-82
2022/05/09 10:11:31;;;;;;;6.95;3.90;;;16.60;99.90;;;;;;6092866;23;20049;-82
2022/05/09 10:14:00;;;;;;;4.80;3.88;;;16.60;99.90;;;;;;6067386;23;20434;-82
2022/05/09 10:16:51;;;;;;;4.70;3.50;;;16.60;99.90;;;;;;6092754;23;20003;-82
2022/05/09 10:19:31;;;;;;;4.88;3.60;;;16.70;99.90;;;;;;6092919;23;20482;-82
2022/05/09 10:25:20;;;;;;;4.03;3.60;;;16.70;99.90;;;;;;6093210;23;20192;-83
2022/05/09 10:27:59;;;;;;;5.47;3.78;;;16.70;99.90;;;;;;6067324;23;20007;-82
2022/05/09 10:30:32;;;;;;;7.07;4.10;;;16.80;99.90;;;;;;6067262;23;19999;-82
2022/05/09 10:33:00;;;;;;;7.95;3.80;;;16.80;99.90;;;;;;6067269;23;20014;-83
2022/05/09 10:35:43;;;;;;;4.47;3.50;;;16.80;99.90;;;;;;6092702;23;19999;-84
2022/05/09 10:38:18;;;;;;;5.20;3.80;;;16.70;99.90;;;;;;6092736;23;20374;-83
2022/05/09 10:40:50;;;;;;;5.88;3.67;;;16.70;99.90;;;;;;6092659;23;20002;-83
2022/05/09 10:43:24;;;;;;;5.15;3.60;;;16.70;99.90;;;;;;6092771;23;20006;-83
2022/05/09 10:45:50;;;;;;;4.63;3.63;;;16.60;99.90;;;;;;6067191;23;20086;-83
2022/05/09 10:48:19;;;;;;;3.95;3.50;;;16.60;99.90;;;;;;6092580;23;20331;-83
2022/05/09 10:51:01;;;;;;;5.10;3.78;;;16.60;99.90;;;;;;6068067;23;20014;-82
2022/05/09 10:53:36;;;;;;;4.00;3.53;;;16.60;99.90;;;;;;6067043;23;20002;-82
2022/05/09 10:56:03;;;;;;;5.05;3.85;;;16.60;99.90;;;;;;6066719;23;20347;-82
2022/05/09 10:58:53;;;;;;;9.93;4.07;;;16.60;99.90;;;;;;6093161;23;20006;-82
2022/05/09 11:01:38;;;;;;;5.15;3.78;;;16.60;99.90;;;;;;6093683;23;20377;-83
2022/05/09 11:04:04;;;;;;;4.85;3.80;;;16.60;99.90;;;;;;6093614;23;20129;-83
2022/05/09 11:06:47;;;;;;;5.07;3.95;;;16.60;99.90;;;;;;6068180;23;20053;-83
2022/05/09 11:09:41;;;;;;;6.43;3.70;;;16.70;99.90;;;;;;6068191;23;20093;-83
2022/05/09 11:12:07;;;;;;;5.25;4.00;;;16.70;99.90;;;;;;6068270;23;20426;-82
2022/05/09 11:14:51;;;;;;;4.43;3.70;;;16.70;99.90;;;;;;6093857;23;20002;-83
2022/05/09 11:17:31;;;;;;;6.13;3.97;;;16.80;99.90;;;;;;6093605;23;20474;-82
2022/05/09 11:20:31;;;;;;;5.65;3.67;;;16.80;99.90;;;;;;6093721;23;20116;-82
2022/05/09 11:23:17;;;;;;;6.13;4.25;;;16.90;99.90;;;;;;6068100;23;20017;-83
2022/05/09 11:25:55;;;;;;;6.63;3.90;;;16.90;99.90;;;;;;6067740;23;20002;-82
2022/05/09 11:28:21;;;;;;;4.20;3.80;;;16.80;99.90;;;;;;6093693;23;20009;-82
2022/05/09 11:31:06;;;;;;;5.15;4.18;;;16.80;99.90;;;;;;6068183;23;20086;-83
2022/05/09 11:33:53;;;;;;;6.50;4.20;;;16.80;99.90;;;;;;6068328;23;20466;-83
2022/05/09 11:36:27;;;;;;;5.65;4.35;;;16.80;99.90;;;;;;6068094;23;20014;-83
2022/05/09 11:39:04;;;;;;;5.40;3.85;;;16.80;99.90;;;;;;6068494;23;20011;-82
2022/05/09 11:41:44;;;;;;;6.07;3.80;;;16.90;99.90;;;;;;6068239;23;20010;-83
2022/05/09 11:44:16;;;;;;;6.95;4.30;;;17.00;99.90;;;;;;6068023;23;20057;-83
2022/05/09 11:47:07;;;;;;;5.97;3.88;;;17.00;99.90;;;;;;6068086;23;20034;-82
2022/05/09 11:49:58;;;;;;;6.32;3.70;;;17.10;99.90;;;;;;6068143;23;20030;-82
2022/05/09 11:52:29;;;;;;;5.28;4.20;;;17.10;99.90;;;;;;6093580;23;19999;-82
2022/05/09 11:55:06;;;;;;;6.28;4.03;;;17.20;99.90;;;;;;6067922;23;20053;-82
2022/05/09 11:57:36;;;;;;;4.72;3.80;;;17.30;99.90;;;;;;6093915;23;20014;-84
2022/05/09 12:00:08;;;;;;;5.05;3.78;;;17.30;99.90;;;;;;6067949;23;20493;-83
2022/05/09 12:02:45;;;;;;;4.75;3.65;;;17.40;99.90;;;;;;6093418;23;20007;-83
2022/05/09 12:05:26;;;;;;;3.70;3.30;;;17.40;99.90;;;;;;6067968;23;20007;-83
2022/05/09 12:08:15;;;;;;;4.75;3.80;;;17.40;99.90;;;;;;6067959;23;20003;-82
2022/05/09 12:10:43;;;;;;;5.32;4.05;;;17.50;99.90;;;;;;6093512;23;20003;-83
2022/05/09 12:13:38;;;;;;;4.35;3.70;;;17.60;99.90;;;;;;6067875;23;20009;-83
2022/05/09 12:16:04;;;;;;;6.68;4.07;;;17.50;99.90;;;;;;6093432;23;20014;-85
2022/05/09 12:18:50;;;;;;;7.35;4.32;;;17.50;99.90;;;;;;6068853;23;20048;-84
2022/05/09 12:21:19;;;;;;;6.60;4.28;;;17.40;99.90;;;;;;6067887;23;20036;-85
2022/05/09 12:23:44;;;;;;;6.40;4.40;;;17.40;99.90;;;;;;6067825;23;20010;-83
2022/05/09 12:26:30;;;;;;;6.63;3.75;;;17.30;99.90;;;;;;6093497;23;20330;-83
2022/05/09 12:29:20;;;;;;;4.82;3.88;;;17.20;99.90;;;;;;6068061;23;20339;-84
2022/05/09 12:31:51;;;;;;;5.55;3.85;;;17.20;99.90;;;;;;6093541;23;20413;-84
2022/05/09 12:34:27;;;;;;;7.88;3.70;;;17.10;99.90;;;;;;6067870;23;20083;-83
2022/05/09 12:36:52;;;;;;;5.18;3.60;;;17.10;99.90;;;;;;6093447;23;20006;-83
2022/05/09 12:39:24;;;;;;;7.60;3.92;;;17.00;99.90;;;;;;6067972;23;20015;-83
2022/05/09 12:41:55;;;;;;;4.60;3.90;;;17.00;99.90;;;;;;6093809;23;20330;-84
2022/05/09 12:44:29;;;;;;;6.20;3.90;;;17.00;99.90;;;;;;6093430;23;19998;-84
2022/05/09 12:47:02;;;;;;;5.47;3.38;;;17.00;99.90;;;;;;6068286;23;20422;-84
2022/05/09 12:49:37;;;;;;;4.07;3.47;;;17.00;99.90;;;;;;6093706;23;20098;-84
2022/05/09 12:52:04;;;;;;;5.28;3.90;;;17.00;99.90;;;;;;6093589;23;20014;-84
2022/05/09 12:54:30;;;;;;;4.90;3.47;;;16.90;99.90;;;;;;6068162;23;20010;-83
2022/05/09 12:57:00;;;;;;;6.38;3.90;;;17.00;99.90;;;;;;6067688;23;20026;-83
2022/05/09 12:59:28;;;;;;;4.53;3.55;;;17.00;99.90;;;;;;6093513;23;20335;-83
2022/05/09 13:01:59;;;;;;;4.65;3.70;;;17.10;99.90;;;;;;6093498;23;20026;-83
2022/05/09 13:04:31;;;;;;;5.40;3.50;;;17.30;99.90;;;;;;6067962;23;20115;-84
2022/05/09 13:07:02;;;;;;;4.40;3.22;;;17.50;99.90;;;;;;6067815;23;20025;-83
2022/05/09 13:09:46;;;;;;;4.30;3.38;;;17.60;99.90;;;;;;6093696;23;20003;-83
2022/05/09 13:12:23;;;;;;;5.57;3.50;;;17.60;99.90;;;;;;6067898;23;20033;-84
2022/05/09 13:14:54;;;;;;;3.65;3.20;;;17.80;99.90;;;;;;6093708;23;20227;-83
2022/05/09 13:17:35;;;;;;;4.03;3.05;;;18.00;99.90;;;;;;6093403;23;20084;-83